createdAt,value
2019-06-21T00:00:21.143Z,6.97
2019-06-21T00:02:52.305Z,7.27
2019-06-21T00:05:23.389Z,5.40
2019-06-21T00:07:54.687Z,7.10
2019-06-21T00:10:25.817Z,5.47
2019-06-21T00:12:56.869Z,5.13
2019-06-21T00:15:28.037Z,6.40
2019-06-21T00:18:17.686Z,6.27
2019-06-21T00:20:48.874Z,6.43
2019-06-21T00:23:20.027Z,6.70
2019-06-21T00:25:52.326Z,5.70
2019-06-21T00:28:23.745Z,5.67
2019-06-21T00:30:54.828Z,5.97
2019-06-21T00:33:26.134Z,7.00
2019-06-21T00:35:57.298Z,7.00
2019-06-21T00:38:28.261Z,6.80
2019-06-21T00:40:59.486Z,6.80
2019-06-21T00:43:30.636Z,7.67
2019-06-21T00:46:01.781Z,7.10
2019-06-21T00:48:32.891Z,6.80
2019-06-21T00:51:04.083Z,6.80
2019-06-21T00:53:35.227Z,6.70
2019-06-21T00:56:06.551Z,6.60
2019-06-21T00:58:37.823Z,6.33
2019-06-21T01:01:09.474Z,7.10
2019-06-21T01:03:40.690Z,7.73
2019-06-21T01:06:12.029Z,6.83
2019-06-21T01:08:44.136Z,6.70
2019-06-21T01:11:15.682Z,6.20
2019-06-21T01:13:46.653Z,7.60
2019-06-21T01:16:17.794Z,7.37
2019-06-21T01:18:49.014Z,6.90
2019-06-21T01:21:20.221Z,8.13
2019-06-21T01:23:51.475Z,8.40
2019-06-21T01:26:22.750Z,7.60
2019-06-21T01:28:54.109Z,7.97
2019-06-21T01:31:26.280Z,8.17
2019-06-21T01:33:57.511Z,8.73
2019-06-21T01:36:28.783Z,8.80
2019-06-21T01:39:00.160Z,7.73
2019-06-21T01:41:31.423Z,8.97
2019-06-21T01:44:06.758Z,8.60
2019-06-21T01:46:37.952Z,8.67
2019-06-21T01:49:09.120Z,9.77
2019-06-21T01:51:40.287Z,9.20
2019-06-21T01:54:11.582Z,9.20
2019-06-21T01:56:42.890Z,9.70
2019-06-21T01:59:14.147Z,9.53
2019-06-21T02:01:45.425Z,10.67
2019-06-21T02:04:16.812Z,9.77
2019-06-21T02:06:47.807Z,10.60
2019-06-21T02:09:19.021Z,9.30
2019-06-21T02:11:52.490Z,9.30
2019-06-21T02:14:23.903Z,9.90
2019-06-21T02:16:55.162Z,10.20
2019-06-21T02:19:26.490Z,9.23
2019-06-21T02:21:57.722Z,9.90
2019-06-21T02:24:28.974Z,9.40
2019-06-21T02:27:00.577Z,10.10
2019-06-21T02:29:31.965Z,9.53
2019-06-21T02:32:03.231Z,9.40
2019-06-21T02:34:34.443Z,10.20
2019-06-21T02:37:05.915Z,9.23
2019-06-21T02:39:37.815Z,9.90
2019-06-21T02:42:09.013Z,9.30
2019-06-21T02:44:40.399Z,9.27
2019-06-21T02:47:11.658Z,10.37
2019-06-21T02:49:42.961Z,9.87
2019-06-21T02:52:32.447Z,10.00
2019-06-21T02:55:05.556Z,10.57
2019-06-21T02:57:36.824Z,10.30
2019-06-21T03:00:09.554Z,9.47
2019-06-21T03:02:40.615Z,9.80
2019-06-21T03:05:11.954Z,9.97
2019-06-21T03:07:43.680Z,9.10
2019-06-21T03:10:15.459Z,9.17
2019-06-21T03:12:46.628Z,8.63
2019-06-21T03:15:19.625Z,9.77
2019-06-21T03:17:51.009Z,9.33
2019-06-21T03:20:22.418Z,10.10
2019-06-21T03:22:53.578Z,9.10
2019-06-21T03:25:24.768Z,9.13
2019-06-21T03:27:55.936Z,9.97
2019-06-21T03:30:27.276Z,8.70
2019-06-21T03:32:58.126Z,9.20
2019-06-21T03:35:29.468Z,9.20
2019-06-21T03:38:00.798Z,9.90
2019-06-21T03:40:33.221Z,8.97
2019-06-21T03:43:04.325Z,10.73
2019-06-21T03:45:35.758Z,9.23
2019-06-21T03:48:07.244Z,9.70
2019-06-21T03:50:45.359Z,9.43
2019-06-21T03:53:16.557Z,9.57
2019-06-21T03:55:47.682Z,9.60
2019-06-21T03:58:19.184Z,9.37
2019-06-21T04:00:50.354Z,7.40
2019-06-21T04:03:21.579Z,7.57
2019-06-21T04:05:52.872Z,7.50
2019-06-21T04:08:24.148Z,7.10
2019-06-21T04:10:55.423Z,7.53
2019-06-21T04:13:26.743Z,7.27
2019-06-21T04:15:58.061Z,7.73
2019-06-21T04:18:32.094Z,7.40
2019-06-21T04:21:04.636Z,7.43
2019-06-21T04:23:35.938Z,7.63
2019-06-21T04:26:07.288Z,8.10
2019-06-21T04:28:38.620Z,8.13
2019-06-21T04:31:09.937Z,7.57
2019-06-21T04:33:40.914Z,8.30
2019-06-21T04:36:12.330Z,7.83
2019-06-21T04:38:43.474Z,9.43
2019-06-21T04:41:14.862Z,8.53
2019-06-21T04:43:45.954Z,8.97
2019-06-21T04:46:20.593Z,9.53
2019-06-21T04:48:52.037Z,10.00
2019-06-21T04:51:23.308Z,8.77
2019-06-21T04:53:54.561Z,9.10
2019-06-21T04:56:25.843Z,10.67
2019-06-21T04:58:57.066Z,9.33
2019-06-21T05:01:28.372Z,9.50
2019-06-21T05:03:59.618Z,10.00
2019-06-21T05:06:30.952Z,10.60
2019-06-21T05:09:02.770Z,10.27
2019-06-21T05:11:35.054Z,11.17
2019-06-21T05:14:06.495Z,11.10
2019-06-21T05:16:38.518Z,10.87
2019-06-21T05:19:10.058Z,10.03
2019-06-21T05:21:52.530Z,10.43
2019-06-21T05:24:15.950Z,11.40
2019-06-21T05:26:47.535Z,10.30
2019-06-21T05:29:18.784Z,11.07
2019-06-21T05:31:50.431Z,9.40
2019-06-21T05:34:21.630Z,8.80
2019-06-21T05:37:02.223Z,10.07
2019-06-21T05:39:26.706Z,9.63
2019-06-21T05:41:58.192Z,10.70
2019-06-21T05:44:29.512Z,9.77
2019-06-21T05:47:01.027Z,10.00
2019-06-21T05:49:32.437Z,9.27
2019-06-21T05:52:03.703Z,9.90
2019-06-21T05:54:34.871Z,9.00
2019-06-21T05:57:08.495Z,9.53
2019-06-21T05:59:40.381Z,8.50
2019-06-21T06:02:11.743Z,10.47
2019-06-21T06:04:42.728Z,9.27
2019-06-21T06:07:14.225Z,9.10
2019-06-21T06:09:45.473Z,7.80
2019-06-21T06:12:17.088Z,8.33
2019-06-21T06:14:48.366Z,8.17
2019-06-21T06:17:22.481Z,7.00
2019-06-21T06:19:52.797Z,7.30
2019-06-21T06:22:24.259Z,6.10
2019-06-21T06:24:57.136Z,7.00
2019-06-21T06:27:28.477Z,7.50
2019-06-21T06:30:02.365Z,6.23
2019-06-21T06:32:33.049Z,5.60
2019-06-21T06:35:04.283Z,6.23
2019-06-21T06:37:35.750Z,5.80
2019-06-21T06:40:07.787Z,6.70
2019-06-21T06:42:39.006Z,5.90
2019-06-21T06:45:11.113Z,6.70
2019-06-21T06:47:42.252Z,7.10
2019-06-21T06:50:13.929Z,5.33
2019-06-21T06:52:45.359Z,5.90
2019-06-21T06:55:16.635Z,6.37
2019-06-21T06:57:47.942Z,6.40
2019-06-21T07:00:19.782Z,5.67
2019-06-21T07:02:51.101Z,5.20
2019-06-21T07:05:22.653Z,5.93
2019-06-21T07:07:54.193Z,7.10
2019-06-21T07:10:25.541Z,6.40
2019-06-21T07:12:56.865Z,6.67
2019-06-21T07:15:28.774Z,6.83
2019-06-21T07:17:59.929Z,7.20
2019-06-21T07:20:34.839Z,5.37
2019-06-21T07:23:04.338Z,5.97
2019-06-21T07:25:35.553Z,5.60
2019-06-21T07:28:07.726Z,6.00
2019-06-21T07:30:39.203Z,6.90
2019-06-21T07:33:10.603Z,6.47
2019-06-21T07:35:41.436Z,5.87
2019-06-21T07:38:12.838Z,5.53
2019-06-21T07:40:45.481Z,6.70
2019-06-21T07:43:16.771Z,8.07
2019-06-21T07:45:48.132Z,4.50
2019-06-21T07:48:22.947Z,4.67
2019-06-21T07:50:54.233Z,6.60
2019-06-21T07:53:25.840Z,6.43
2019-06-21T07:55:57.256Z,4.13
2019-06-21T07:58:28.541Z,4.20
2019-06-21T08:01:00.387Z,3.83
2019-06-21T08:03:31.874Z,4.87
2019-06-21T08:06:03.252Z,5.37
2019-06-21T08:08:34.554Z,4.50
2019-06-21T08:11:06.187Z,4.70
2019-06-21T08:13:37.616Z,3.77
2019-06-21T08:16:08.852Z,9.30
2019-06-21T08:18:39.816Z,4.90
2019-06-21T08:21:11.155Z,8.07
2019-06-21T08:23:42.827Z,4.33
2019-06-21T08:26:14.234Z,3.63
2019-06-21T08:28:45.419Z,3.80
2019-06-21T08:31:19.836Z,6.63
2019-06-21T08:33:51.620Z,4.37
2019-06-21T08:36:23.443Z,4.80
2019-06-21T08:38:54.743Z,3.97
2019-06-21T08:41:26.169Z,3.23
2019-06-21T08:43:57.780Z,2.97
2019-06-21T08:46:28.923Z,3.13
2019-06-21T08:49:00.173Z,3.50
2019-06-21T08:51:31.340Z,3.10
2019-06-21T08:54:02.687Z,3.50
2019-06-21T08:56:34.185Z,2.97
2019-06-21T08:59:05.698Z,3.30
2019-06-21T09:01:37.037Z,5.20
2019-06-21T09:04:09.712Z,3.10
2019-06-21T09:06:40.869Z,3.13
2019-06-21T09:09:13.486Z,3.17
2019-06-21T09:11:44.764Z,2.90
2019-06-21T09:14:15.981Z,2.43
2019-06-21T09:16:46.855Z,3.10
2019-06-21T09:19:18.025Z,3.60
2019-06-21T09:21:48.989Z,2.57
2019-06-21T09:24:25.240Z,3.30
2019-06-21T09:26:56.513Z,2.70
2019-06-21T09:29:28.153Z,2.37
2019-06-21T09:31:59.412Z,2.50
2019-06-21T09:34:32.798Z,2.83
2019-06-21T09:37:06.446Z,2.93
2019-06-21T09:39:39.182Z,3.60
2019-06-21T09:42:11.968Z,2.23
2019-06-21T09:44:43.573Z,3.10
2019-06-21T09:47:14.943Z,3.00
2019-06-21T09:49:46.257Z,2.27
2019-06-21T09:52:18.914Z,2.37
2019-06-21T09:54:50.135Z,2.53
2019-06-21T09:57:21.375Z,2.50
2019-06-21T09:59:53.049Z,3.30
2019-06-21T10:02:24.541Z,2.80
2019-06-21T10:04:55.850Z,2.60
2019-06-21T10:07:27.389Z,2.60
2019-06-21T10:10:00.084Z,2.87
2019-06-21T10:12:32.273Z,5.00
2019-06-21T10:15:05.625Z,5.00
2019-06-21T10:17:37.194Z,4.27
2019-06-21T10:20:10.379Z,3.60
2019-06-21T10:22:41.914Z,3.10
2019-06-21T10:25:14.656Z,3.53
2019-06-21T10:27:46.232Z,3.67
2019-06-21T10:30:18.058Z,4.67
2019-06-21T10:32:49.700Z,4.70
2019-06-21T10:35:21.033Z,3.80
2019-06-21T10:37:52.649Z,4.42
2019-06-21T10:40:24.268Z,3.57
2019-06-21T10:42:58.895Z,3.80
2019-06-21T10:45:28.247Z,3.40
2019-06-21T10:47:59.754Z,3.77
2019-06-21T10:50:34.852Z,3.47
2019-06-21T10:53:06.324Z,3.17
2019-06-21T10:55:38.004Z,3.10
2019-06-21T10:58:09.204Z,3.90
2019-06-21T11:00:40.380Z,3.17
2019-06-21T11:03:11.765Z,3.10
2019-06-21T11:05:42.902Z,3.50
2019-06-21T11:08:14.548Z,3.43
2019-06-21T11:10:46.130Z,3.50
2019-06-21T11:13:19.054Z,3.63
2019-06-21T11:15:52.409Z,4.00
2019-06-21T11:18:24.792Z,4.00
2019-06-21T11:20:57.253Z,3.97
2019-06-21T11:23:29.593Z,4.13
2019-06-21T11:26:03.557Z,4.83
2019-06-21T11:28:34.147Z,4.07
2019-06-21T11:31:06.203Z,3.00
2019-06-21T11:33:37.777Z,3.60
2019-06-21T11:36:09.573Z,2.73
2019-06-21T11:38:40.598Z,4.40
2019-06-21T11:41:12.163Z,3.90
2019-06-21T11:43:43.065Z,3.70
2019-06-21T11:46:14.503Z,4.50
2019-06-21T11:48:45.456Z,4.43
2019-06-21T11:51:17.084Z,4.00
2019-06-21T11:53:48.367Z,4.63
2019-06-21T11:56:19.907Z,5.93
2019-06-21T11:58:51.281Z,22.33
2019-06-21T12:01:22.553Z,3.70
2019-06-21T12:03:53.963Z,3.97
2019-06-21T12:06:25.231Z,4.60
2019-06-21T12:08:56.510Z,4.63
2019-06-21T12:11:27.724Z,4.50
2019-06-21T12:14:00.509Z,3.90
2019-06-21T12:16:32.542Z,4.07
2019-06-21T12:19:04.572Z,3.23
2019-06-21T12:21:35.884Z,3.93
2019-06-21T12:24:08.480Z,4.20
2019-06-21T12:26:39.888Z,4.03
2019-06-21T12:29:11.175Z,4.80
2019-06-21T12:31:42.414Z,5.00
2019-06-21T12:34:26.561Z,4.20
2019-06-21T12:36:46.862Z,5.33
2019-06-21T12:39:18.007Z,6.73
2019-06-21T12:41:49.327Z,4.67
2019-06-21T12:44:20.513Z,4.60
2019-06-21T12:46:52.567Z,4.60
2019-06-21T12:49:23.951Z,5.80
2019-06-21T12:51:55.467Z,4.83
2019-06-21T12:54:26.823Z,6.53
2019-06-21T12:56:58.534Z,5.37
2019-06-21T12:59:30.884Z,6.40
2019-06-21T13:02:03.808Z,5.47
2019-06-21T13:04:49.092Z,5.50
2019-06-21T13:07:24.715Z,5.27
2019-06-21T13:09:42.999Z,6.53
2019-06-21T13:12:17.226Z,4.73
2019-06-21T13:15:02.101Z,5.40
2019-06-21T13:17:21.435Z,6.00
2019-06-21T13:19:52.609Z,5.50
2019-06-21T13:22:24.205Z,5.20
2019-06-21T13:24:58.897Z,5.93
2019-06-21T13:27:30.559Z,5.80
2019-06-21T13:30:03.982Z,4.30
2019-06-21T13:32:35.122Z,5.50
2019-06-21T13:35:06.284Z,5.20
2019-06-21T13:37:37.684Z,5.70
2019-06-21T13:40:10.092Z,6.20
2019-06-21T13:42:41.384Z,4.97
2019-06-21T13:45:24.197Z,4.77
2019-06-21T13:47:45.964Z,4.60
2019-06-21T13:50:17.667Z,5.00
2019-06-21T13:52:52.378Z,4.23
2019-06-21T13:55:23.488Z,4.60
2019-06-21T13:57:57.388Z,3.73
2019-06-21T14:00:27.922Z,3.63
2019-06-21T14:03:00.240Z,4.30
2019-06-21T14:05:32.111Z,3.90
2019-06-21T14:08:03.907Z,4.07
2019-06-21T14:10:35.981Z,5.57
2019-06-21T14:13:07.317Z,3.37
2019-06-21T14:15:40.596Z,4.00
2019-06-21T14:18:12.843Z,3.40
2019-06-21T14:20:46.838Z,4.17
2019-06-21T14:23:18.004Z,4.00
2019-06-21T14:26:05.636Z,4.17
2019-06-21T14:28:36.867Z,4.43
2019-06-21T14:31:07.942Z,5.03
2019-06-21T14:33:39.715Z,5.30
2019-06-21T14:36:10.902Z,3.60
2019-06-21T14:38:42.210Z,4.23
2019-06-21T14:41:13.190Z,3.20
2019-06-21T14:43:45.736Z,3.10
2019-06-21T14:46:16.802Z,3.00
2019-06-21T14:48:48.711Z,3.00
2019-06-21T14:51:19.978Z,2.63
2019-06-21T14:53:51.230Z,4.23
2019-06-21T14:56:23.049Z,2.80
2019-06-21T14:58:54.283Z,2.85
2019-06-21T15:01:25.875Z,2.67
2019-06-21T15:03:58.387Z,4.17
2019-06-21T15:06:30.003Z,3.07
2019-06-21T15:09:05.807Z,2.90
2019-06-21T15:11:37.380Z,3.00
2019-06-21T15:14:08.721Z,2.87
2019-06-21T15:16:40.019Z,3.10
2019-06-21T15:19:11.504Z,3.33
2019-06-21T15:21:42.469Z,2.80
2019-06-21T15:24:14.036Z,2.80
2019-06-21T15:26:45.009Z,2.90
2019-06-21T15:29:16.084Z,3.80
2019-06-21T15:31:47.015Z,3.10
2019-06-21T15:34:18.238Z,3.13
2019-06-21T15:36:49.007Z,2.40
2019-06-21T15:39:20.183Z,3.17
2019-06-21T15:41:51.276Z,3.17
2019-06-21T15:44:22.755Z,2.97
2019-06-21T15:46:55.757Z,3.73
2019-06-21T15:49:26.763Z,2.80
2019-06-21T15:52:00.426Z,3.07
2019-06-21T15:54:34.222Z,4.20
2019-06-21T15:57:05.793Z,2.80
2019-06-21T15:59:36.830Z,4.73
2019-06-21T16:02:08.387Z,4.73
2019-06-21T16:04:40.075Z,3.80
2019-06-21T16:07:11.277Z,2.47
2019-06-21T16:09:42.192Z,3.60
2019-06-21T16:12:13.532Z,2.93
2019-06-21T16:14:44.421Z,4.10
2019-06-21T16:17:15.705Z,3.57
2019-06-21T16:19:46.433Z,4.42
2019-06-21T16:22:17.556Z,3.20
2019-06-21T16:24:48.548Z,3.47
2019-06-21T16:27:19.757Z,3.97
2019-06-21T16:29:50.691Z,4.80
2019-06-21T16:32:21.829Z,7.50
2019-06-21T16:34:53.299Z,2.23
2019-06-21T16:37:24.829Z,3.00
2019-06-21T16:39:56.244Z,3.00
2019-06-21T16:42:27.359Z,3.00
2019-06-21T16:44:58.497Z,4.07
2019-06-21T16:47:29.654Z,2.57
2019-06-21T16:50:00.856Z,2.47
2019-06-21T16:52:32.065Z,3.50
2019-06-21T16:55:09.006Z,2.80
2019-06-21T16:57:39.959Z,3.03
2019-06-21T17:00:12.949Z,2.77
2019-06-21T17:02:44.102Z,2.90
2019-06-21T17:05:15.523Z,3.63
2019-06-21T17:07:46.202Z,3.97
2019-06-21T17:10:17.362Z,3.53
2019-06-21T17:12:48.637Z,3.27
2019-06-21T17:15:22.285Z,3.70
2019-06-21T17:17:52.704Z,3.13
2019-06-21T17:20:24.024Z,3.13
2019-06-21T17:22:55.405Z,3.77
2019-06-21T17:25:33.592Z,3.43
2019-06-21T17:28:04.638Z,3.27
2019-06-21T17:30:36.705Z,3.57
2019-06-21T17:33:08.186Z,3.10
2019-06-21T17:35:40.956Z,4.20
2019-06-21T17:38:12.637Z,3.53
2019-06-21T17:40:43.898Z,3.60
2019-06-21T17:43:15.883Z,4.63
2019-06-21T17:45:47.075Z,2.80
2019-06-21T17:48:18.254Z,3.00
2019-06-21T17:50:49.599Z,3.90
2019-06-21T17:53:20.771Z,3.47
2019-06-21T17:55:51.998Z,3.30
2019-06-21T17:58:24.358Z,5.63
2019-06-21T18:00:55.569Z,3.60
2019-06-21T18:03:26.828Z,3.23
2019-06-21T18:05:58.025Z,2.97
2019-06-21T18:08:29.148Z,3.17
2019-06-21T18:11:00.311Z,4.20
2019-06-21T18:13:31.565Z,6.30
2019-06-21T18:16:04.062Z,3.10
2019-06-21T18:18:35.287Z,3.97
2019-06-21T18:21:06.414Z,3.30
2019-06-21T18:23:37.577Z,3.70
2019-06-21T18:26:08.949Z,6.63
2019-06-21T18:28:40.390Z,6.30
2019-06-21T18:31:11.850Z,3.90
2019-06-21T18:33:42.742Z,3.83
2019-06-21T18:36:14.058Z,3.90
2019-06-21T18:38:45.425Z,3.47
2019-06-21T18:41:17.152Z,4.40
2019-06-21T18:43:48.361Z,3.83
2019-06-21T18:46:19.834Z,3.17
2019-06-21T18:48:51.383Z,3.33
2019-06-21T18:51:22.988Z,3.60
2019-06-21T18:53:54.601Z,4.83
2019-06-21T18:56:26.078Z,5.27
2019-06-21T18:58:57.934Z,4.87
2019-06-21T19:01:31.933Z,4.40
2019-06-21T19:04:03.092Z,4.07
2019-06-21T19:06:42.283Z,3.70
2019-06-21T19:09:13.609Z,4.57
2019-06-21T19:11:44.987Z,4.30
2019-06-21T19:14:16.186Z,4.17
2019-06-21T19:16:47.039Z,3.87
2019-06-21T19:19:25.090Z,4.40
2019-06-21T19:21:56.530Z,4.50
2019-06-21T19:24:28.876Z,4.57
2019-06-21T19:27:00.369Z,4.83
2019-06-21T19:29:35.882Z,5.07
2019-06-21T19:32:07.901Z,3.80
2019-06-21T19:34:39.472Z,4.60
2019-06-21T19:37:10.902Z,4.50
2019-06-21T19:39:41.831Z,4.90
2019-06-21T19:42:13.165Z,5.13
2019-06-21T19:44:44.001Z,4.90
2019-06-21T19:47:15.529Z,4.40
2019-06-21T19:49:46.548Z,3.87
2019-06-21T19:52:17.984Z,5.00
2019-06-21T19:54:48.958Z,3.50
2019-06-21T19:57:29.152Z,4.37
2019-06-21T20:00:00.654Z,6.97
2019-06-21T20:02:32.695Z,4.73
2019-06-21T20:05:09.748Z,6.50
2019-06-21T20:07:41.824Z,4.23
2019-06-21T20:10:13.940Z,6.33
2019-06-21T20:12:44.775Z,4.13
2019-06-21T20:15:19.295Z,4.60
2019-06-21T20:17:50.380Z,5.00
2019-06-21T20:20:22.003Z,4.90
2019-06-21T20:22:53.117Z,6.53
2019-06-21T20:25:27.040Z,3.50
2019-06-21T20:27:58.301Z,7.43
2019-06-21T20:30:29.743Z,5.23
2019-06-21T20:33:19.806Z,5.63
2019-06-21T20:35:51.041Z,5.03
2019-06-21T20:38:22.339Z,5.20
2019-06-21T20:40:53.471Z,6.17
2019-06-21T20:43:24.985Z,4.63
2019-06-21T20:45:56.062Z,4.43
2019-06-21T20:48:27.484Z,5.20
2019-06-21T20:50:59.058Z,8.60
2019-06-21T20:53:31.332Z,7.57
2019-06-21T20:56:02.736Z,5.47
2019-06-21T20:58:34.520Z,7.23
2019-06-21T21:01:05.742Z,5.30
2019-06-21T21:03:37.112Z,5.00
2019-06-21T21:06:08.265Z,8.77
2019-06-21T21:08:39.559Z,5.30
2019-06-21T21:11:12.002Z,5.93
2019-06-21T21:13:42.956Z,4.13
2019-06-21T21:16:14.311Z,4.40
2019-06-21T21:18:45.433Z,3.80
2019-06-21T21:21:16.719Z,4.40
2019-06-21T21:23:47.708Z,6.10
2019-06-21T21:26:18.797Z,3.50
2019-06-21T21:28:51.614Z,5.00
2019-06-21T21:31:22.979Z,5.30
2019-06-21T21:33:54.206Z,7.90
2019-06-21T21:36:25.640Z,6.10
2019-06-21T21:38:57.041Z,6.30
2019-06-21T21:41:28.150Z,5.83
2019-06-21T21:43:59.362Z,5.83
2019-06-21T21:46:30.472Z,5.23
2019-06-21T21:49:03.980Z,5.97
2019-06-21T21:51:35.102Z,5.90
2019-06-21T21:54:06.412Z,6.07
2019-06-21T21:56:37.476Z,6.57
2019-06-21T21:59:09.480Z,6.00
2019-06-21T22:01:41.092Z,5.80
2019-06-21T22:04:12.576Z,5.50
2019-06-21T22:06:43.508Z,6.80
2019-06-21T22:09:14.637Z,8.87
2019-06-21T22:11:46.797Z,5.60
2019-06-21T22:14:18.092Z,5.80
2019-06-21T22:16:48.898Z,6.77
2019-06-21T22:19:20.107Z,7.00
2019-06-21T22:21:51.331Z,5.43
2019-06-21T22:24:22.584Z,5.23
2019-06-21T22:26:53.653Z,5.40
2019-06-21T22:29:24.998Z,5.13
2019-06-21T22:31:59.423Z,5.70
2019-06-21T22:34:31.926Z,5.50
2019-06-21T22:37:03.061Z,5.23
2019-06-21T22:39:34.238Z,5.63
2019-06-21T22:42:05.294Z,10.53
2019-06-21T22:44:36.528Z,7.33
2019-06-21T22:47:07.715Z,7.40
2019-06-21T22:49:39.790Z,9.33
2019-06-21T22:52:11.010Z,7.90
2019-06-21T22:54:41.878Z,8.67
2019-06-21T22:57:12.934Z,7.73
2019-06-21T22:59:49.241Z,10.37
2019-06-21T23:02:20.398Z,7.03
2019-06-21T23:04:51.636Z,6.30
2019-06-21T23:07:22.700Z,4.87
2019-06-21T23:09:55.512Z,5.23
2019-06-21T23:12:26.604Z,4.30
2019-06-21T23:14:57.709Z,5.23
2019-06-21T23:17:30.486Z,4.30
2019-06-21T23:20:12.259Z,4.47
2019-06-21T23:22:44.614Z,3.87
2019-06-21T23:25:19.520Z,4.47
2019-06-21T23:27:50.294Z,4.10
2019-06-21T23:30:21.614Z,4.47
2019-06-21T23:32:52.741Z,4.58
2019-06-21T23:35:25.248Z,4.50
2019-06-21T23:37:56.511Z,5.10
2019-06-21T23:40:27.625Z,4.40
2019-06-21T23:42:58.617Z,6.07
2019-06-21T23:45:29.910Z,4.83
2019-06-21T23:48:02.705Z,4.47
2019-06-21T23:50:47.699Z,3.87
2019-06-21T23:53:08.226Z,4.67
2019-06-21T23:55:39.423Z,4.67
2019-06-21T23:58:12.177Z,5.13
